Time;durP1;ratioP1;P1;durP2;ratioP2;P2;SDS_P1;SDS_P2;PMS_P1;PMS_P2;Temp;Humidity;BMP_temperature;BMP_pressure;BME280_temperature;BME280_humidity;BME280_pressure;Samples;Min_cycle;Max_cycle;Signal;HPM_P1;HPM_P2
2022/09/03 00:01:50;;;;;;;6.72;3.95;;;;;;;17.95;77.00;100177.83;1620319;88;20980;-69
2022/09/03 00:04:30;;;;;;;7.22;4.35;;;;;;;17.95;76.34;100172.25;1572339;90;21023;-71
2022/09/03 00:07:13;;;;;;;6.78;3.92;;;;;;;17.96;76.72;100175.25;1580853;89;21176;-70
2022/09/03 00:09:48;;;;;;;10.58;4.58;;;;;;;17.96;77.21;100179.44;1579861;89;21050;-71
2022/09/03 00:12:42;;;;;;;7.72;4.92;;;;;;;17.95;77.68;100179.22;1573269;90;21024;-69
2022/09/03 00:15:19;;;;;;;8.40;4.30;;;;;;;17.96;76.41;100181.43;1581306;89;21042;-70
2022/09/03 00:18:06;;;;;;;7.95;4.22;;;;;;;17.94;77.51;100177.61;1579804;90;20995;-71
2022/09/03 00:20:46;;;;;;;12.58;4.97;;;;;;;17.93;77.92;100181.55;1581930;88;21018;-70
2022/09/03 00:23:25;;;;;;;9.43;3.92;;;;;;;17.93;77.07;100177.97;1555308;90;20972;-71
2022/09/03 00:26:16;;;;;;;8.75;4.58;;;;;;;17.93;77.50;100180.75;1581652;89;21114;-71
2022/09/03 00:28:49;;;;;;;7.87;4.65;;;;;;;17.93;77.22;100183.54;1581107;90;21011;-70
2022/09/03 00:31:38;;;;;;;7.37;4.42;;;;;;;17.91;78.20;100178.89;1580421;89;21035;-71
2022/09/03 00:34:38;;;;;;;8.25;4.87;;;;;;;17.92;78.20;100185.51;1571592;90;21614;-71
2022/09/03 00:37:10;;;;;;;11.12;4.75;;;;;;;17.92;77.38;100179.93;1580620;88;21066;-71
2022/09/03 00:39:45;;;;;;;7.97;4.72;;;;;;;17.86;76.45;100176.58;1572699;90;20991;-70
2022/09/03 00:42:46;;;;;;;7.87;4.78;;;;;;;17.86;76.81;100175.78;1580804;89;21027;-70
2022/09/03 00:45:34;;;;;;;7.25;4.37;;;;;;;17.85;77.08;100174.97;1581765;89;21581;-71
2022/09/03 00:48:28;;;;;;;8.33;4.12;;;;;;;17.87;78.55;100175.43;1580888;89;21080;-69
2022/09/03 00:51:41;;;;;;;12.53;4.42;;;;;;;17.86;78.82;100176.58;1580973;89;21038;-72
2022/09/03 00:54:37;;;;;;;9.15;4.37;;;;;;;17.81;79.20;100179.61;1554211;91;21042;-71
2022/09/03 00:57:47;;;;;;;8.15;4.50;;;;;;;17.78;80.14;100178.11;1556860;90;21034;-72
2022/09/03 01:00:22;;;;;;;12.30;5.30;;;;;;;17.76;79.98;100179.28;1638090;87;21029;-71
2022/09/03 01:03:11;;;;;;;10.70;4.97;;;;;;;17.79;80.78;100183.93;1673998;84;21131;-68
2022/09/03 01:06:21;;;;;;;9.33;4.40;;;;;;;17.80;80.79;100179.97;1686202;85;21388;-68
2022/09/03 01:09:47;;;;;;;9.83;4.30;;;;;;;17.81;81.45;100185.79;1695498;83;21496;-70
2022/09/03 01:13:05;;;;;;;10.28;5.10;;;;;;;17.82;81.62;100185.44;1694259;83;20979;-72
2022/09/03 01:15:43;;;;;;;13.35;3.50;;;;;;;17.82;80.63;100181.25;1678469;84;21522;-71
2022/09/03 01:18:32;;;;;;;;;;;;;;;17.81;81.40;100180.22;1659046;85;21005;-70
2022/09/03 01:22:04;;;;;;;8.18;4.15;;;;;;;17.80;80.54;100176.61;1670994;85;20433;-71
2022/09/03 01:25:05;;;;;;;7.70;4.35;;;;;;;17.77;81.60;100181.50;1673179;85;20967;-71
2022/09/03 01:28:19;;;;;;;8.60;4.17;;;;;;;17.76;81.30;100186.25;1690163;84;20982;-71
2022/09/03 01:31:13;;;;;;;9.18;3.77;;;;;;;17.78;80.89;100186.47;1691391;83;20920;-70
2022/09/03 01:34:17;;;;;;;9.00;5.10;;;;;;;17.73;80.30;100189.75;1697139;83;21770;-72
2022/09/03 01:37:21;;;;;;;9.83;3.92;;;;;;;17.72;80.17;100185.92;1689698;83;20884;-68
2022/09/03 01:40:16;;;;;;;7.28;4.60;;;;;;;17.71;79.85;100176.75;1695068;83;20988;-71
2022/09/03 01:43:09;;;;;;;9.48;4.15;;;;;;;17.72;80.81;100189.53;1700046;84;21266;-70
2022/09/03 01:46:12;;;;;;;6.62;4.58;;;;;;;17.72;81.31;100178.96;1689978;82;21077;-71
2022/09/03 01:49:12;;;;;;;6.92;3.50;;;;;;;17.71;81.73;100183.71;1640626;84;21070;-71
2022/09/03 01:51:54;;;;;;;7.35;4.17;;;;;;;17.72;81.28;100176.17;1724394;83;20984;-69
2022/09/03 01:54:54;;;;;;;8.83;4.00;;;;;;;17.71;81.33;100182.89;1671740;84;20979;-69
2022/09/03 01:57:55;;;;;;;8.33;4.10;;;;;;;17.72;81.25;100178.39;1695919;84;21483;-71
2022/09/03 02:00:33;;;;;;;6.95;4.25;;;;;;;17.71;81.20;100189.28;1666303;84;20980;-71
2022/09/03 02:03:06;;;;;;;8.98;4.58;;;;;;;17.71;81.19;100179.53;1689898;84;21154;-71
2022/09/03 02:05:38;;;;;;;9.88;3.90;;;;;;;17.71;81.03;100173.96;1697393;83;20872;-71
2022/09/03 02:08:08;;;;;;;5.47;3.60;;;;;;;17.73;81.08;100180.00;1690152;84;20960;-70
2022/09/03 02:10:49;;;;;;;8.25;3.87;;;;;;;17.72;81.79;100175.60;1695460;84;20848;-70
2022/09/03 02:13:37;;;;;;;9.48;4.25;;;;;;;17.72;81.69;100177.56;1686643;84;20971;-71
2022/09/03 02:16:14;;;;;;;9.63;4.72;;;;;;;17.73;81.41;100176.39;1636300;85;21087;-72
2022/09/03 02:18:46;;;;;;;9.00;4.40;;;;;;;17.73;81.57;100178.61;1683688;85;20919;-72
2022/09/03 02:21:20;;;;;;;8.33;4.20;;;;;;;17.73;80.84;100177.21;1697967;84;20883;-72
2022/09/03 02:24:00;;;;;;;7.53;4.80;;;;;;;17.73;81.19;100177.78;1690090;84;20972;-70
2022/09/03 02:26:45;;;;;;;8.95;3.92;;;;;;;17.73;81.43;100178.61;1694733;83;20964;-72
2022/09/03 02:29:27;;;;;;;10.55;4.80;;;;;;;17.71;81.11;100176.75;1694365;83;21262;-71
2022/09/03 02:32:04;;;;;;;10.93;3.85;;;;;;;17.71;81.06;100173.96;1693130;84;21444;-72
2022/09/03 02:34:34;;;;;;;7.37;4.35;;;;;;;17.71;80.75;100176.75;1690119;84;20968;-71
2022/09/03 02:37:21;;;;;;;5.80;3.58;;;;;;;17.70;81.24;100182.10;1693163;83;20975;-71
2022/09/03 02:39:58;;;;;;;7.70;3.58;;;;;;;17.71;80.94;100184.28;1690931;83;21040;-71
2022/09/03 02:42:26;;;;;;;7.92;3.80;;;;;;;17.69;80.91;100174.89;1695354;83;21234;-70
2022/09/03 02:45:02;;;;;;;9.28;3.47;;;;;;;17.69;81.80;100181.86;1696398;84;20919;-72
2022/09/03 02:47:49;;;;;;;7.70;3.62;;;;;;;17.70;82.09;100186.85;1689942;84;20975;-70
2022/09/03 02:50:24;;;;;;;11.22;4.17;;;;;;;17.70;82.09;100186.28;1695169;83;21535;-71
2022/09/03 02:52:54;;;;;;;4.33;3.72;;;;;;;17.69;82.16;100189.42;1665894;83;20995;-72
2022/09/03 02:55:24;;;;;;;7.58;4.45;;;;;;;17.68;81.76;100185.81;1695138;83;21259;-73
2022/09/03 02:57:56;;;;;;;8.43;4.35;;;;;;;17.68;81.98;100187.78;1699681;84;20939;-71
2022/09/03 03:00:29;;;;;;;7.58;4.30;;;;;;;17.68;82.32;100189.17;1699609;82;21461;-71
2022/09/03 03:02:59;;;;;;;10.08;4.55;;;;;;;17.70;83.20;100193.82;1699123;84;20982;-71
2022/09/03 03:05:49;;;;;;;8.45;3.67;;;;;;;17.69;86.50;100186.64;1678606;84;21104;-70
2022/09/03 03:08:24;;;;;;;15.23;4.30;;;;;;;17.68;85.51;100186.39;1699148;84;21153;-71
2022/09/03 03:11:07;;;;;;;8.40;4.50;;;;;;;17.66;85.70;100184.56;1698188;84;20937;-70
2022/09/03 03:13:47;;;;;;;10.03;4.30;;;;;;;17.64;86.71;100186.28;1698767;84;21419;-71
2022/09/03 03:16:16;;;;;;;9.48;4.05;;;;;;;17.62;86.82;100192.20;1690240;84;21081;-70
2022/09/03 03:18:52;;;;;;;7.95;4.12;;;;;;;17.61;87.57;100189.77;1697929;84;20882;-71
2022/09/03 03:21:22;;;;;;;11.78;4.50;;;;;;;17.61;85.93;100191.17;1699247;84;20954;-72
2022/09/03 03:23:52;;;;;;;6.58;3.98;;;;;;;17.56;86.28;100193.63;1699020;84;20990;-71
2022/09/03 03:26:24;;;;;;;8.93;3.85;;;;;;;17.56;87.73;100194.20;1697773;84;21009;-70
2022/09/03 03:29:19;;;;;;;7.33;4.37;;;;;;;17.57;88.31;100195.84;1694729;84;20965;-70
2022/09/03 03:31:49;;;;;;;8.28;4.22;;;;;;;17.55;90.43;100205.12;1699175;84;20894;-70
2022/09/03 03:34:27;;;;;;;6.90;4.03;;;;;;;17.45;91.55;100205.03;1696555;84;21404;-70
2022/09/03 03:36:58;;;;;;;8.23;4.05;;;;;;;17.38;93.18;100205.62;1699065;84;21057;-71
2022/09/03 03:39:31;;;;;;;12.37;4.80;;;;;;;17.35;94.47;100207.11;1697842;84;20922;-69
2022/09/03 03:45:05;;;;;;;12.05;6.75;;;;;;;17.37;93.59;100241.58;1698023;84;20898;-71
2022/09/03 03:47:45;;;;;;;11.75;5.65;;;;;;;17.37;91.71;100245.75;1686143;84;21045;-71
2022/09/03 03:50:16;;;;;;;11.18;6.10;;;;;;;17.36;90.95;100233.00;1698771;84;20938;-70
2022/09/03 03:52:44;;;;;;;14.83;7.10;;;;;;;17.34;90.98;100247.27;1699090;84;21017;-71
2022/09/03 03:55:17;;;;;;;10.32;5.28;;;;;;;17.37;90.73;100236.00;1686933;84;21049;-70
2022/09/03 03:57:43;;;;;;;10.43;5.33;;;;;;;17.34;89.85;100236.14;1699039;84;21033;-70
2022/09/03 04:00:17;;;;;;;11.25;5.37;;;;;;;17.34;90.13;100242.27;1710533;83;21450;-71
2022/09/03 04:02:51;;;;;;;8.10;4.78;;;;;;;17.35;90.12;100236.95;1711472;83;21037;-71
2022/09/03 04:05:23;;;;;;;12.60;4.53;;;;;;;17.35;91.81;100236.95;1710359;83;20875;-72
2022/09/03 04:07:55;;;;;;;12.80;5.30;;;;;;;17.34;91.86;100236.70;1708754;83;21038;-71
2022/09/03 04:10:31;;;;;;;9.05;4.95;;;;;;;17.24;91.98;100237.42;1705328;83;21009;-70
2022/09/03 04:13:10;;;;;;;12.23;4.75;;;;;;;17.19;94.15;100239.61;1708240;84;20998;-71
2022/09/03 04:15:36;;;;;;;6.17;4.28;;;;;;;17.18;95.46;100244.36;1709834;83;20858;-71
2022/09/03 04:18:04;;;;;;;8.35;4.55;;;;;;;17.23;97.46;100248.31;1709461;83;21041;-72
2022/09/03 04:20:33;;;;;;;8.48;4.70;;;;;;;17.25;96.92;100245.17;1708286;83;21310;-71
2022/09/03 04:23:01;;;;;;;8.80;4.47;;;;;;;17.25;96.11;100243.78;1687873;84;21061;-68
2022/09/03 04:25:30;;;;;;;10.58;4.37;;;;;;;17.30;96.13;100244.15;1709477;83;21060;-70
2022/09/03 04:27:57;;;;;;;12.03;4.50;;;;;;;17.34;95.31;100241.70;1709752;83;20890;-70
2022/09/03 04:30:26;;;;;;;9.95;4.70;;;;;;;17.36;94.95;100242.17;1707314;84;20990;-71
2022/09/03 04:32:56;;;;;;;8.90;4.03;;;;;;;17.39;93.95;100237.86;1709869;83;20950;-72
2022/09/03 04:35:35;;;;;;;9.48;5.08;;;;;;;17.41;94.27;100238.33;1708494;83;21053;-72
2022/09/03 04:38:08;;;;;;;10.63;4.75;;;;;;;17.44;94.57;100239.02;1709721;83;21112;-70
2022/09/03 04:41:08;;;;;;;10.15;5.00;;;;;;;17.41;94.08;100241.12;1679947;83;20989;-72
2022/09/03 04:43:47;;;;;;;10.30;4.87;;;;;;;17.38;95.58;100249.58;1708927;83;20990;-70
2022/09/03 04:46:17;;;;;;;10.70;4.65;;;;;;;17.35;97.03;100246.70;1709520;83;21041;-72
2022/09/03 04:48:52;;;;;;;10.60;4.33;;;;;;;17.38;97.49;100243.22;1705838;84;21416;-71
2022/09/03 04:51:31;;;;;;;7.40;4.37;;;;;;;17.38;98.91;100241.83;1709019;83;21897;-70
2022/09/03 04:54:09;;;;;;;8.28;4.42;;;;;;;17.37;99.95;100234.61;1709500;83;20999;-72
2022/09/03 04:56:38;;;;;;;13.22;5.28;;;;;;;17.37;99.72;100240.18;1709405;83;21455;-70
2022/09/03 04:59:12;;;;;;;12.00;5.00;;;;;;;17.39;99.31;100244.25;1708661;84;20898;-70
2022/09/03 05:01:47;;;;;;;9.78;5.47;;;;;;;17.42;98.54;100237.16;1689051;85;20942;-71
2022/09/03 05:04:19;;;;;;;11.83;4.25;;;;;;;17.43;98.02;100240.20;1689610;84;22813;-72
2022/09/03 05:06:50;;;;;;;15.83;5.12;;;;;;;17.46;98.33;100237.28;1689116;84;20955;-70
2022/09/03 05:09:20;;;;;;;11.95;4.70;;;;;;;17.52;99.29;100238.66;1684210;85;20898;-71
2022/09/03 05:11:49;;;;;;;9.63;5.10;;;;;;;17.68;98.75;100240.72;1689337;85;21014;-71
2022/09/03 05:14:15;;;;;;;9.50;5.17;;;;;;;17.72;97.87;100236.91;1689348;84;20910;-71
2022/09/03 05:16:49;;;;;;;11.95;4.45;;;;;;;17.74;98.46;100234.55;1688929;84;21052;-72
2022/09/03 05:19:23;;;;;;;7.20;4.70;;;;;;;17.74;99.77;100226.80;1689473;84;21054;-72
2022/09/03 05:21:56;;;;;;;9.08;4.40;;;;;;;17.80;99.81;100232.92;1688989;83;20969;-72
2022/09/03 05:24:31;;;;;;;9.00;4.65;;;;;;;17.86;99.02;100240.68;1689113;85;20974;-72
2022/09/03 05:26:59;;;;;;;8.65;4.45;;;;;;;17.92;98.53;100238.47;1689244;84;20978;-70
2022/09/03 05:29:37;;;;;;;11.83;4.62;;;;;;;17.89;98.08;100230.81;1689409;84;21009;-70
2022/09/03 05:32:16;;;;;;;9.70;4.95;;;;;;;17.91;100.00;100229.89;1689236;84;20962;-71
2022/09/03 05:34:54;;;;;;;13.00;5.85;;;;;;;17.95;99.97;100234.15;1689208;83;21038;-71
2022/09/03 05:37:23;;;;;;;10.05;5.17;;;;;;;17.99;99.72;100228.93;1689532;82;20970;-71
2022/09/03 05:39:52;;;;;;;11.48;5.00;;;;;;;18.04;98.36;100232.62;1689528;84;21018;-71
2022/09/03 05:42:20;;;;;;;11.70;5.12;;;;;;;18.08;98.28;100234.94;1689309;85;21151;-70
2022/09/03 05:44:50;;;;;;;11.73;5.20;;;;;;;18.11;97.96;100235.61;1689407;84;20891;-71
2022/09/03 05:47:19;;;;;;;12.07;5.45;;;;;;;18.14;97.94;100234.94;1689465;84;20918;-74
2022/09/03 05:49:50;;;;;;;11.90;5.33;;;;;;;18.15;96.77;100237.94;1689536;84;20985;-70
2022/09/03 05:52:20;;;;;;;21.97;6.45;;;;;;;18.19;96.89;100236.66;1689658;84;21423;-70
2022/09/03 05:54:48;;;;;;;10.93;5.83;;;;;;;18.27;98.17;100244.05;1689403;84;21148;-71
2022/09/03 05:57:20;;;;;;;9.78;5.40;;;;;;;18.35;98.47;100244.50;1689583;84;20951;-74
2022/09/03 06:00:05;;;;;;;13.95;6.65;;;;;;;18.38;97.64;100233.20;1689070;84;21010;-73
2022/09/03 06:02:38;;;;;;;15.55;6.53;;;;;;;18.46;98.33;100234.20;1689106;84;20942;-69
2022/09/03 06:05:17;;;;;;;16.97;6.57;;;;;;;18.58;95.86;100235.53;1689677;84;20938;-70
2022/09/03 06:07:53;;;;;;;13.45;6.42;;;;;;;18.68;95.29;100232.00;1689602;82;21041;-71
2022/09/03 06:10:28;;;;;;;15.98;6.83;;;;;;;18.77;94.00;100227.63;1687805;85;20939;-69
2022/09/03 06:13:02;;;;;;;15.63;6.58;;;;;;;18.80;91.30;100224.14;1684902;85;21531;-71
2022/09/03 06:15:28;;;;;;;12.88;6.78;;;;;;;18.75;89.95;100220.22;1689360;84;20955;-71
2022/09/03 06:18:05;;;;;;;10.03;5.87;;;;;;;18.78;91.70;100225.08;1688205;83;20890;-69
2022/09/03 06:20:34;;;;;;;14.00;7.08;;;;;;;18.85;91.60;100229.45;1672621;85;21863;-69
2022/09/03 06:23:12;;;;;;;13.40;7.03;;;;;;;18.91;89.32;100229.98;1688680;84;20985;-71
2022/09/03 06:25:45;;;;;;;11.05;6.92;;;;;;;18.92;87.89;100235.80;1687766;85;20938;-70
2022/09/03 06:28:14;;;;;;;11.88;6.55;;;;;;;18.98;89.04;100239.36;1689516;84;20990;-74
2022/09/03 06:30:47;;;;;;;15.53;6.47;;;;;;;19.08;88.95;100234.39;1689380;85;20946;-71
2022/09/03 06:33:19;;;;;;;19.92;6.05;;;;;;;19.14;86.12;100234.36;1689700;84;21121;-72
2022/09/03 06:35:58;;;;;;;18.77;6.78;;;;;;;19.15;87.49;100230.98;1672019;85;21437;-71
2022/09/03 06:38:30;;;;;;;;;;;;;;;19.25;89.01;100231.02;1691956;84;20974;-71
2022/09/03 06:41:05;;;;;;;22.32;7.97;;;;;;;19.36;89.05;100227.91;1689599;85;20154;-71
2022/09/03 06:43:40;;;;;;;12.60;7.55;;;;;;;19.46;89.37;100230.12;1689235;84;20926;-71
2022/09/03 06:46:18;;;;;;;17.07;7.67;;;;;;;19.48;85.92;100228.38;1687176;84;21018;-71
2022/09/03 06:48:49;;;;;;;;;;;;;;;19.49;85.74;100231.39;1690322;85;20950;-71
2022/09/03 06:51:23;;;;;;;15.38;7.33;;;;;;;19.46;83.24;100239.11;1689397;85;20146;-73
2022/09/03 06:54:05;;;;;;;19.52;7.05;;;;;;;19.44;85.87;100239.47;1676014;84;20907;-71
2022/09/03 06:56:41;;;;;;;13.40;7.10;;;;;;;19.52;86.93;100228.44;1686900;85;21581;-72
2022/09/03 06:59:13;;;;;;;15.55;7.47;;;;;;;19.65;86.99;100228.53;1689402;85;21169;-71
2022/09/03 07:01:42;;;;;;;20.20;6.85;;;;;;;19.80;86.28;100227.47;1689176;84;20967;-71
2022/09/03 07:04:14;;;;;;;24.40;7.67;;;;;;;19.93;84.01;100232.32;1689361;85;21319;-70
2022/09/03 07:06:50;;;;;;;45.43;10.28;;;;;;;20.05;84.82;100227.20;1689471;84;21041;-70
2022/09/03 07:09:17;;;;;;;15.00;7.28;;;;;;;20.18;84.69;100227.88;1689616;85;20970;-71
2022/09/03 07:11:48;;;;;;;13.15;6.10;;;;;;;20.23;84.44;100230.38;1689116;85;20887;-70
2022/09/03 07:14:19;;;;;;;17.55;9.05;;;;;;;20.32;83.47;100234.33;1689348;84;20990;-71
2022/09/03 07:16:56;;;;;;;23.02;7.05;;;;;;;20.36;81.89;100231.59;1685731;84;21498;-71
2022/09/03 07:19:27;;;;;;;21.45;6.58;;;;;;;20.35;81.90;100230.78;1689393;85;21054;-71
2022/09/03 07:21:56;;;;;;;15.30;6.63;;;;;;;20.33;80.60;100228.15;1689810;84;20990;-71
2022/09/03 07:24:26;;;;;;;12.55;5.67;;;;;;;20.32;81.70;100237.13;1689524;84;21536;-70
2022/09/03 07:26:56;;;;;;;15.45;6.15;;;;;;;20.30;82.78;100234.70;1688806;84;21557;-69
2022/09/03 07:29:23;;;;;;;13.00;6.53;;;;;;;20.34;84.65;100243.74;1689637;84;20891;-70
2022/09/03 07:31:55;;;;;;;10.38;5.60;;;;;;;20.38;84.84;100242.66;1687336;84;21009;-69
2022/09/03 07:34:25;;;;;;;10.48;5.35;;;;;;;20.47;82.42;100244.41;1698997;84;21037;-69
2022/09/03 07:37:04;;;;;;;13.70;4.22;;;;;;;20.55;82.86;100243.36;1687185;85;21439;-70
2022/09/03 07:39:32;;;;;;;16.20;5.08;;;;;;;20.65;83.13;100248.35;1666214;85;21005;-69
2022/09/03 07:42:02;;;;;;;10.53;4.75;;;;;;;20.75;82.68;100248.91;1699131;84;20906;-73
2022/09/03 07:44:39;;;;;;;17.85;4.60;;;;;;;20.88;81.66;100251.73;1689355;83;20969;-72
2022/09/03 07:47:17;;;;;;;8.03;4.83;;;;;;;20.90;74.14;100242.95;1689451;84;20918;-70
2022/09/03 07:49:46;;;;;;;11.03;4.75;;;;;;;20.87;72.03;100251.53;1689506;84;21246;-71
2022/09/03 07:52:21;;;;;;;7.78;4.53;;;;;;;20.95;71.04;100245.48;1688738;84;20942;-70
2022/09/03 07:54:51;;;;;;;10.10;4.47;;;;;;;21.01;70.71;100245.40;1689341;84;21009;-70
2022/09/03 07:57:24;;;;;;;11.90;4.53;;;;;;;21.15;71.87;100247.61;1682721;85;21045;-70
2022/09/03 07:59:56;;;;;;;11.18;4.78;;;;;;;21.27;72.12;100254.21;1687332;85;21518;-71
2022/09/03 08:02:25;;;;;;;7.50;4.22;;;;;;;21.35;73.04;100247.53;1708649;82;21011;-71
2022/09/03 08:04:55;;;;;;;7.67;4.45;;;;;;;21.36;72.77;100242.12;1709460;83;21619;-70
2022/09/03 08:07:22;;;;;;;9.18;4.40;;;;;;;21.37;73.48;100240.96;1709467;83;21037;-70
2022/09/03 08:10:01;;;;;;;10.65;4.87;;;;;;;21.40;71.30;100239.38;1705912;84;20906;-71
2022/09/03 08:12:31;;;;;;;13.22;5.28;;;;;;;21.46;69.17;100246.27;1709392;83;20957;-69
2022/09/03 08:15:05;;;;;;;8.08;4.10;;;;;;;21.47;67.20;100246.51;1709402;83;20942;-71
2022/09/03 08:17:34;;;;;;;12.82;3.95;;;;;;;21.36;68.72;100244.14;1709541;83;20930;-71
2022/09/03 08:20:15;;;;;;;11.05;4.00;;;;;;;21.39;69.54;100241.98;1684603;84;21006;-70
2022/09/03 08:22:44;;;;;;;9.00;4.03;;;;;;;21.48;70.30;100238.88;1709509;83;21049;-72
2022/09/03 08:25:16;;;;;;;11.08;3.62;;;;;;;21.61;70.57;100237.50;1709376;83;21040;-71
2022/09/03 08:27:48;;;;;;;13.28;3.90;;;;;;;21.74;70.51;100244.27;1711369;83;21063;-71
2022/09/03 08:30:20;;;;;;;9.45;3.47;;;;;;;21.81;70.48;100241.59;1710738;83;20933;-71
2022/09/03 08:32:52;;;;;;;6.90;3.70;;;;;;;21.87;70.55;100240.06;1706454;82;21435;-71
2022/09/03 08:35:24;;;;;;;5.72;3.12;;;;;;;21.97;70.10;100247.61;1710735;83;20981;-70
2022/09/03 08:37:53;;;;;;;7.58;3.25;;;;;;;22.04;67.29;100228.04;1686860;84;21525;-71
2022/09/03 08:40:38;;;;;;;5.92;3.47;;;;;;;22.07;65.08;100231.52;1704499;84;21097;-70
2022/09/03 08:43:13;;;;;;;;;;;;;;;22.07;62.72;100231.52;1711988;83;21021;-69
2022/09/03 08:45:51;;;;;;;6.87;3.37;;;;;;;22.06;65.27;100218.66;1699210;84;20474;-71
2022/09/03 08:48:23;;;;;;;9.98;4.20;;;;;;;22.12;66.83;100215.74;1700152;83;20974;-70
2022/09/03 08:51:09;;;;;;;13.30;4.00;;;;;;;22.21;67.02;100216.82;1694708;84;21021;-72
2022/09/03 08:53:50;;;;;;;4.97;2.83;;;;;;;22.32;63.63;100211.34;1691375;84;26182;-70
2022/09/03 08:56:33;;;;;;;13.70;3.37;;;;;;;22.27;59.82;100207.47;1678893;84;21463;-71
2022/09/03 08:59:04;;;;;;;8.75;3.10;;;;;;;22.16;64.04;100205.16;1678366;84;21141;-70
2022/09/03 09:02:00;;;;;;;5.95;2.58;;;;;;;22.28;63.83;100208.29;1678283;84;20985;-70
2022/09/03 09:04:54;;;;;;;6.10;2.70;;;;;;;22.41;63.73;100199.81;1710563;82;21549;-70
2022/09/03 09:07:34;;;;;;;5.60;2.52;;;;;;;22.56;61.67;100204.14;1646963;87;21493;-71
2022/09/03 09:10:13;;;;;;;6.65;2.80;;;;;;;22.61;58.63;100206.63;1700281;82;20965;-73
2022/09/03 09:13:08;;;;;;;6.22;2.80;;;;;;;22.67;55.26;100200.08;1699969;83;21132;-69
2022/09/03 09:19:50;;;;;;;8.28;2.87;;;;;;;22.77;55.17;100195.16;1715776;83;21430;-69
2022/09/03 09:22:37;;;;;;;9.10;3.02;;;;;;;22.88;57.29;100195.23;1711730;83;21263;-71
2022/09/03 09:25:14;;;;;;;5.60;2.60;;;;;;;22.83;54.81;100209.05;1716070;83;21414;-72
2022/09/03 09:28:06;;;;;;;7.72;2.10;;;;;;;22.81;54.21;100203.00;1710934;83;20873;-72
2022/09/03 09:30:33;;;;;;;4.53;2.20;;;;;;;22.84;53.85;100201.43;1715007;83;20944;-71
2022/09/03 09:33:06;;;;;;;8.13;2.33;;;;;;;22.88;54.79;100202.87;1682997;83;20961;-71
2022/09/03 09:35:35;;;;;;;4.72;2.33;;;;;;;22.90;55.02;100200.45;1716032;83;21149;-72
2022/09/03 09:38:09;;;;;;;17.12;3.40;;;;;;;22.90;55.21;100203.27;1715761;83;20908;-71
2022/09/03 09:40:42;;;;;;;5.97;2.47;;;;;;;22.86;53.72;100204.05;1715820;82;20972;-71
2022/09/03 09:43:24;;;;;;;7.83;2.42;;;;;;;22.75;54.77;100201.75;1715791;82;21011;-70
2022/09/03 09:45:58;;;;;;;7.30;2.57;;;;;;;22.79;54.49;100211.00;1699316;83;20889;-70
2022/09/03 09:48:36;;;;;;;11.45;3.02;;;;;;;22.81;56.39;100207.21;1700473;84;21068;-71
2022/09/03 09:51:12;;;;;;;8.63;2.10;;;;;;;22.83;57.14;100203.42;1711316;83;20917;-73
2022/09/03 09:53:46;;;;;;;3.27;2.05;;;;;;;22.90;56.47;100206.07;1706003;84;20990;-71
2022/09/03 09:56:43;;;;;;;3.62;1.90;;;;;;;22.95;55.90;100205.12;1704370;83;20933;-70
2022/09/03 09:59:17;;;;;;;3.77;2.25;;;;;;;23.00;55.78;100207.38;1715824;83;20904;-71
2022/09/03 10:01:47;;;;;;;4.05;2.08;;;;;;;23.04;55.68;100209.02;1680338;84;21026;-71
2022/09/03 10:04:34;;;;;;;7.30;1.90;;;;;;;23.08;55.08;100207.02;1710346;83;20913;-70
2022/09/03 10:07:28;;;;;;;16.15;3.70;;;;;;;23.09;55.38;100203.63;1681184;84;20961;-70
2022/09/03 10:10:18;;;;;;;6.37;2.45;;;;;;;23.12;56.80;100213.27;1710457;83;20941;-70
2022/09/03 10:12:58;;;;;;;4.80;2.72;;;;;;;23.16;57.13;100211.30;1710603;84;20961;-71
2022/09/03 10:15:46;;;;;;;11.63;3.67;;;;;;;23.19;56.17;100214.73;1680498;84;21188;-70
2022/09/03 10:18:40;;;;;;;12.10;3.40;;;;;;;23.17;55.67;100217.11;1702875;83;20963;-70
2022/09/03 10:21:36;;;;;;;6.17;2.40;;;;;;;23.14;55.91;100219.30;1679959;84;20913;-70
2022/09/03 10:24:27;;;;;;;6.47;2.22;;;;;;;23.14;55.15;100216.49;1674422;85;21081;-71
2022/09/03 10:27:02;;;;;;;2.70;1.98;;;;;;;23.12;54.98;100211.86;1665548;84;21140;-71
2022/09/03 10:29:31;;;;;;;5.03;2.10;;;;;;;23.12;55.47;100206.23;1659121;85;21273;-68
2022/09/03 10:32:21;;;;;;;5.00;1.98;;;;;;;23.15;56.14;100211.89;1683246;85;21482;-70
2022/09/03 10:35:15;;;;;;;4.62;2.30;;;;;;;23.19;56.82;100203.48;1704273;83;20986;-69
2022/09/03 10:37:56;;;;;;;4.78;2.30;;;;;;;23.21;56.49;100197.70;1677211;85;21441;-72
2022/09/03 10:41:00;;;;;;;11.18;2.22;;;;;;;23.21;55.01;100194.89;1674686;85;21487;-70
2022/09/03 10:44:27;;;;;;;4.85;2.15;;;;;;;23.30;55.15;100195.14;1669620;85;21494;-71
2022/09/03 10:47:39;;;;;;;5.72;2.70;;;;;;;23.16;54.23;100198.65;1670418;85;20886;-71
2022/09/03 10:50:58;;;;;;;3.80;2.25;;;;;;;23.14;55.49;100199.05;1669447;85;21012;-69
2022/09/03 10:54:08;;;;;;;5.15;2.30;;;;;;;23.10;52.47;100194.80;1671504;85;20922;-72
2022/09/03 10:57:11;;;;;;;12.15;2.80;;;;;;;23.06;50.75;100196.80;1674571;85;21025;-70
2022/09/03 11:00:13;;;;;;;8.55;2.83;;;;;;;23.02;50.86;100200.16;1649320;85;20949;-71
2022/09/03 11:06:02;;;;;;;4.47;3.10;;;;;;;22.97;51.55;100197.13;1671375;85;20994;-69
2022/09/03 11:09:03;;;;;;;3.22;2.72;;;;;;;23.05;51.75;100199.38;1674212;84;20977;-70
2022/09/03 11:11:48;;;;;;;6.55;2.47;;;;;;;23.08;51.94;100192.97;1655557;85;21054;-70
2022/09/03 11:14:36;;;;;;;12.45;3.70;;;;;;;23.13;52.77;100192.41;1670770;85;21037;-70
2022/09/03 11:17:10;;;;;;;7.30;3.33;;;;;;;23.20;53.52;100184.04;1674694;83;20995;-71
2022/09/03 11:20:29;;;;;;;3.75;2.40;;;;;;;23.25;52.25;100180.05;1708128;82;20955;-71
2022/09/03 11:23:07;;;;;;;9.60;3.35;;;;;;;23.27;51.05;100175.63;1706909;83;20907;-70
2022/09/03 11:25:38;;;;;;;7.87;3.22;;;;;;;23.31;52.46;100170.85;1709748;82;21572;-72
2022/09/03 11:28:54;;;;;;;6.90;2.87;;;;;;;23.34;52.36;100172.06;1683744;85;22399;-71
2022/09/03 11:32:10;;;;;;;7.33;3.02;;;;;;;23.33;51.59;100170.45;1720062;83;20946;-74
2022/09/03 11:34:50;;;;;;;8.45;3.15;;;;;;;23.34;51.61;100172.87;1661627;84;21013;-69
2022/09/03 11:37:29;;;;;;;6.42;2.90;;;;;;;23.35;52.05;100169.47;1682618;85;20972;-71
2022/09/03 11:40:20;;;;;;;12.40;4.08;;;;;;;23.35;52.42;100163.23;1680817;84;21033;-71
2022/09/03 11:43:26;;;;;;;6.90;4.28;;;;;;;23.33;53.47;100168.46;1708750;82;21031;-69
2022/09/03 11:46:28;;;;;;;11.70;3.72;;;;;;;23.34;52.87;100156.01;1706718;83;20907;-72
2022/09/03 11:49:32;;;;;;;11.50;4.12;;;;;;;23.37;52.52;100146.59;1686905;84;20893;-72
2022/09/03 11:52:09;;;;;;;6.90;3.67;;;;;;;23.43;54.24;100146.44;1682412;85;21083;-72
2022/09/03 11:54:53;;;;;;;5.55;3.42;;;;;;;23.53;53.95;100147.09;1684613;84;21028;-71
2022/09/03 11:57:32;;;;;;;4.40;3.43;;;;;;;23.54;52.77;100139.48;1687760;85;21059;-70
2022/09/03 12:00:21;;;;;;;6.60;3.40;;;;;;;23.54;52.65;100138.86;1674642;85;20954;-70
2022/09/03 12:03:07;;;;;;;7.30;3.62;;;;;;;23.53;52.77;100138.66;1691794;84;21545;-70
2022/09/03 12:06:12;;;;;;;3.85;2.95;;;;;;;23.50;53.78;100136.64;1668951;85;21098;-70
2022/09/03 12:09:06;;;;;;;7.47;3.70;;;;;;;23.48;53.51;100133.41;1668461;84;21025;-70
2022/09/03 12:12:13;;;;;;;7.05;3.50;;;;;;;23.46;53.43;100124.56;1639541;87;21069;-70
2022/09/03 12:15:08;;;;;;;10.88;3.25;;;;;;;23.38;54.28;100124.30;1731868;82;20887;-68
2022/09/03 12:18:21;;;;;;;5.67;3.00;;;;;;;23.35;53.82;100130.91;1728750;82;20978;-70
2022/09/03 12:21:07;;;;;;;8.93;2.60;;;;;;;23.29;53.28;100126.87;1679651;85;21010;-72
2022/09/03 12:23:53;;;;;;;4.62;3.27;;;;;;;23.28;55.87;100125.27;1712392;83;20963;-70
2022/09/03 12:26:35;;;;;;;6.92;2.83;;;;;;;23.33;55.26;100129.11;1712574;83;21102;-73
2022/09/03 12:29:30;;;;;;;9.10;3.67;;;;;;;23.39;53.69;100131.55;1634281;85;21374;-69
2022/09/03 12:32:11;;;;;;;5.47;3.37;;;;;;;23.38;51.55;100137.77;1693872;84;21073;-69
2022/09/03 12:34:37;;;;;;;7.22;3.10;;;;;;;23.38;51.17;100135.54;1688256;83;21042;-72